Flight Track Log - Related Links

Times and Time Zones

All times are in EST time to prevent confusion due to time zone crossing. See the N830QS flight status page for this flight to view local times or setup timezone preferences in your user account.

Time Position Orientation Groundspeed Altitude Reporting Facility
EST Latitude Longitude Course Direction KTS MPH feet Rate Location/Type
Tue 06:07:36 PM 42.8044 -73.8308 333° Northwest 230 265 4,400  Level Boston Center
Tue 06:08:39 PM 42.7656 -73.9011 233° Southwest 252 290 9,400 3,387 Climbing Boston Center
Tue 06:09:40 PM 42.6939 -73.9397 202° Southwest 281 323 11,400 1,279 Climbing Boston Center
Tue 06:10:41 PM 42.6239 -73.9756 201° Southwest 273 314 12,000 298 Climbing Boston Center
Tue 06:11:41 PM 42.5478 -74.0156 201° Southwest 290 334 12,000  Level Boston Center
Tue 06:12:43 PM 42.4664 -74.0567 200° South 291 335 12,000 49 Level Boston Center
Tue 06:13:44 PM 42.3992 -74.0917 201° Southwest 259 298 12,100 49 Climbing Boston Center
Tue 06:14:46 PM 42.3264 -74.1289 201° Southwest 267 307 12,100  Level Boston Center
Tue 06:15:48 PM 42.2589 -74.1667 203° Southwest 259 298 12,100  Level Boston Center
Tue 06:16:48 PM 42.1939 -74.1983 200° South 249 287 12,100  Level Boston Center
Tue 06:17:49 PM 42.1264 -74.2322 200° South 257 296 12,100 -50 Level Boston Center
Tue 06:18:49 PM 42.0572 -74.2669 200° South 248 285 12,000 -48 Descending Boston Center
Tue 06:19:53 PM 41.9944 -74.3000 201° Southwest 243 280 12,000  Level Boston Center
Tue 06:20:53 PM 41.9283 -74.3325 200° South 251 289 12,000  Level Boston Center
Tue 06:21:53 PM 41.8567 -74.3689 201° Southwest 256 295 12,000 -48 Level Boston Center
Tue 06:22:57 PM 41.7897 -74.4022 200° South 256 295 11,900 -871 Descending Boston Center
Tue 06:23:57 PM 41.7214 -74.4364 200° South 263 303 10,200 -1,488 Descending Boston Center
Tue 06:24:58 PM 41.6503 -74.4717 200° South 273 314 8,900 -1,475 Descending Boston Center
Tue 06:25:59 PM 41.5767 -74.5081 200° South 264 304 7,200 -1,403 Descending Boston Center
Tue 06:27:02 PM 41.5069 -74.5433 201° Southwest 269 310 6,000 -581 Descending Boston Center
Tue 06:28:03 PM 41.4361 -74.5783 200° South 273 314 6,000  Level Boston Center
Tue 06:29:03 PM 41.3569 -74.6006 192° South 280 322 6,000 -292 Level Boston Center
Tue 06:30:27 PM 41.2500 -74.6000 180° South 285 328 5,300 -708 Descending New York TRACON
Tue 06:31:27 PM 41.1667 -74.5833 171° South 282 325 4,300 -645 Descending New York TRACON
Tue 06:32:28 PM 41.1333 -74.5333 132° Southeast 245 282 4,000 -600 Descending New York TRACON
Tue 06:33:27 PM 41.1167 -74.4333 102° East 247 284 3,100 -526 Descending New York TRACON
Tue 06:34:22 PM 41.1000 -74.3667 108° East 231 266 3,000 -50 Descending New York TRACON
Tue 06:35:27 PM 41.0833 -74.2667 102° East 233 268 3,000  Level New York TRACON
Tue 06:36:22 PM 41.0667 -74.2000 108° East 224 258 3,000 -300 Level New York TRACON
Tue 06:37:27 PM 41.0500 -74.1167 105° East 190 219 2,400 -500 Descending New York TRACON
Tue 06:38:22 PM 41.0333 -74.0667 114° Southeast 183 211 2,000 -209 Descending New York TRACON
Tue 06:39:22 PM 40.9833 -74.0500 166° South 179 206 2,000 -200 Level New York TRACON
Tue 06:40:22 PM 40.9333 -74.0500 180° South 171 197 1,600 -600 Descending New York TRACON
Tue 06:41:22 PM 40.9000 -74.0500 180° South 133 153 800 -800 Descending New York TRACON
Tue 06:43:00 PM 40.8500 -74.0500 153° Southeast  Level FlightAware Approximate
Tue 06:50:00 PM 40.8501 -74.0608 153° Southeast  Level Estimated

Login

Don't have an account? Register now (free) for customized features, flight alerts, and more!